Time;durP1;ratioP1;P1;durP2;ratioP2;P2;SDS_P1;SDS_P2;PMS_P1;PMS_P2;Temp;Humidity;BMP_temperature;BMP_pressure;BME280_temperature;BME280_humidity;BME280_pressure;Samples;Min_cycle;Max_cycle;Signal;HPM_P1;HPM_P2
2021/05/23 00:02:54;;;;;;;28.33;18.08;;;;;;;;;;6208845;28;20049;-70
2021/05/23 00:05:55;;;;;;;16.98;9.77;;;;;;;;;;6212211;28;20041;-71
2021/05/23 00:08:56;;;;;;;30.83;17.50;;;;;;;;;;6229346;28;20157;-71
2021/05/23 00:11:57;;;;;;;116.45;59.15;;;;;;;;;;6211815;28;20088;-71
2021/05/23 00:14:59;;;;;;;24.27;10.90;;;;;;;;;;6214919;28;20145;-72
2021/05/23 00:18:00;;;;;;;12.32;7.57;;;;;;;;;;6209037;28;20048;-72
2021/05/23 00:21:03;;;;;;;14.73;7.38;;;;;;;;;;6216461;28;20042;-70
2021/05/23 00:24:04;;;;;;;12.27;7.10;;;;;;;;;;6211182;28;20042;-70
2021/05/23 00:27:06;;;;;;;12.15;6.80;;;;;;;;;;6208777;28;20188;-71
2021/05/23 00:30:11;;;;;;;11.45;6.95;;;;;;;;;;6214642;28;20046;-70
2021/05/23 00:33:12;;;;;;;11.02;7.43;;;;;;;;;;6222474;28;20136;-71
2021/05/23 00:36:13;;;;;;;11.15;7.22;;;;;;;;;;6224726;28;20049;-72
2021/05/23 00:39:14;;;;;;;13.05;7.03;;;;;;;;;;6220366;28;20073;-70
2021/05/23 00:42:16;;;;;;;13.27;7.63;;;;;;;;;;6223002;28;20046;-70
2021/05/23 00:45:19;;;;;;;12.00;7.10;;;;;;;;;;6211650;28;20062;-70
2021/05/23 00:48:22;;;;;;;19.00;7.18;;;;;;;;;;6212994;28;20081;-69
2021/05/23 00:51:23;;;;;;;10.97;6.47;;;;;;;;;;6209245;28;20152;-70
2021/05/23 00:54:24;;;;;;;14.93;6.88;;;;;;;;;;6206691;28;20088;-70
2021/05/23 00:57:27;;;;;;;10.32;6.53;;;;;;;;;;6213058;28;20041;-71
2021/05/23 01:01:08;;;;;;;13.55;6.30;;;;;;;;;;6210945;28;20056;-70
2021/05/23 01:04:10;;;;;;;10.85;5.43;;;;;;;;;;6245517;22;20457;-73
2021/05/23 01:07:11;;;;;;;11.48;5.70;;;;;;;;;;6251050;28;20077;-73
2021/05/23 01:10:15;;;;;;;9.05;5.47;;;;;;;;;;6251274;28;20108;-72
2021/05/23 01:13:52;;;;;;;7.88;5.18;;;;;;;;;;6251343;28;20124;-73
2021/05/23 01:16:55;;;;;;;9.32;5.32;;;;;;;;;;6250430;28;20053;-73
2021/05/23 01:20:25;;;;;;;14.52;5.10;;;;;;;;;;6251646;28;20069;-73
2021/05/23 01:23:30;;;;;;;9.52;5.30;;;;;;;;;;6250569;28;20045;-72
2021/05/23 01:26:36;;;;;;;9.70;4.78;;;;;;;;;;6250179;28;20046;-72
2021/05/23 01:29:38;;;;;;;10.07;4.90;;;;;;;;;;6250821;28;20049;-72
2021/05/23 01:32:42;;;;;;;8.57;4.70;;;;;;;;;;6249944;28;20152;-72
2021/05/23 01:35:46;;;;;;;;;;;;;;;;;;6243259;28;20133;-73
2021/05/23 01:38:47;;;;;;;9.85;4.72;;;;;;;;;;6239912;28;19928;-73
2021/05/23 01:41:50;;;;;;;10.15;5.03;;;;;;;;;;6239814;28;20051;-73
2021/05/23 01:44:51;;;;;;;9.15;4.65;;;;;;;;;;6233980;28;20058;-72
2021/05/23 01:47:52;;;;;;;10.60;4.68;;;;;;;;;;6236380;28;20057;-72
2021/05/23 01:50:53;;;;;;;9.50;5.00;;;;;;;;;;6233970;28;20050;-72
2021/05/23 01:53:54;;;;;;;11.35;4.43;;;;;;;;;;6237670;28;20513;-73
2021/05/23 01:56:56;;;;;;;9.32;4.35;;;;;;;;;;6238654;28;20491;-72
2021/05/23 01:59:57;;;;;;;9.30;4.72;;;;;;;;;;6240281;28;20061;-72
2021/05/23 02:02:59;;;;;;;7.72;4.60;;;;;;;;;;6240212;28;20500;-73
2021/05/23 02:06:03;;;;;;;9.38;4.53;;;;;;;;;;6236074;28;20057;-72
2021/05/23 02:09:05;;;;;;;6.95;4.75;;;;;;;;;;6233174;28;20050;-72
2021/05/23 02:12:07;;;;;;;9.02;4.93;;;;;;;;;;6236497;28;20140;-72
2021/05/23 02:15:10;;;;;;;7.38;4.45;;;;;;;;;;6232591;28;20042;-74
2021/05/23 02:18:11;;;;;;;5.18;3.80;;;;;;;;;;6232856;28;20077;-72
2021/05/23 02:21:13;;;;;;;10.00;4.10;;;;;;;;;;6233987;28;20142;-72
2021/05/23 02:24:15;;;;;;;8.80;4.40;;;;;;;;;;6235333;28;20038;-72
2021/05/23 02:27:17;;;;;;;7.65;4.43;;;;;;;;;;6233405;28;20076;-72
2021/05/23 02:30:21;;;;;;;9.15;4.35;;;;;;;;;;6237063;28;20069;-72
2021/05/23 02:33:24;;;;;;;11.32;4.55;;;;;;;;;;6236800;28;20096;-73
2021/05/23 02:36:25;;;;;;;7.00;4.65;;;;;;;;;;6231234;28;20215;-72
2021/05/23 02:39:26;;;;;;;10.25;4.13;;;;;;;;;;6233264;28;20055;-73
2021/05/23 02:42:28;;;;;;;6.65;4.10;;;;;;;;;;6234009;28;20259;-73
2021/05/23 02:45:29;;;;;;;8.18;4.13;;;;;;;;;;6234640;28;20053;-72
2021/05/23 02:48:30;;;;;;;7.55;4.32;;;;;;;;;;6232129;28;20057;-72
2021/05/23 02:51:31;;;;;;;9.60;4.32;;;;;;;;;;6235598;28;20079;-73
2021/05/23 02:54:32;;;;;;;7.85;5.18;;;;;;;;;;6238694;28;20140;-73
2021/05/23 02:57:34;;;;;;;5.47;4.28;;;;;;;;;;6231480;28;20152;-72
2021/05/23 03:00:36;;;;;;;11.18;4.72;;;;;;;;;;6235407;28;20049;-72
2021/05/23 03:03:37;;;;;;;9.43;4.72;;;;;;;;;;6233973;28;20132;-72
2021/05/23 03:06:38;;;;;;;7.07;4.32;;;;;;;;;;6230822;28;20050;-72
2021/05/23 03:09:39;;;;;;;14.38;6.03;;;;;;;;;;6233621;28;20057;-72
2021/05/23 03:12:41;;;;;;;7.47;5.20;;;;;;;;;;6231958;28;20049;-73
2021/05/23 03:15:42;;;;;;;11.27;5.55;;;;;;;;;;6233030;28;20504;-72
2021/05/23 03:18:43;;;;;;;12.55;6.00;;;;;;;;;;6233667;28;20690;-72
2021/05/23 03:21:45;;;;;;;8.02;5.50;;;;;;;;;;6233346;28;20057;-72
2021/05/23 03:24:46;;;;;;;11.60;5.88;;;;;;;;;;6235742;28;20188;-73
2021/05/23 03:27:48;;;;;;;8.60;5.93;;;;;;;;;;6248386;28;20176;-72
2021/05/23 03:30:49;;;;;;;8.23;5.60;;;;;;;;;;6240053;28;20137;-72
2021/05/23 03:33:50;;;;;;;12.23;6.50;;;;;;;;;;6234117;28;20083;-72
2021/05/23 03:36:51;;;;;;;12.00;6.65;;;;;;;;;;6230573;28;20070;-72
2021/05/23 03:39:53;;;;;;;12.30;6.53;;;;;;;;;;6231907;28;20132;-73
2021/05/23 03:42:54;;;;;;;10.75;6.55;;;;;;;;;;6234299;28;20104;-73
2021/05/23 03:45:56;;;;;;;10.27;6.65;;;;;;;;;;6232475;28;20176;-72
2021/05/23 03:48:57;;;;;;;14.38;7.50;;;;;;;;;;6236229;28;20128;-72
2021/05/23 03:51:58;;;;;;;11.07;7.05;;;;;;;;;;6233165;28;20060;-72
2021/05/23 03:54:59;;;;;;;15.98;7.63;;;;;;;;;;6231993;28;20132;-72
2021/05/23 03:58:01;;;;;;;13.02;7.97;;;;;;;;;;6238199;28;20107;-72
2021/05/23 04:01:02;;;;;;;14.73;7.95;;;;;;;;;;6238252;28;20513;-72
2021/05/23 04:04:06;;;;;;;16.52;8.38;;;;;;;;;;6234029;28;20054;-72
2021/05/23 04:07:07;;;;;;;15.27;8.38;;;;;;;;;;6230665;28;20038;-72
2021/05/23 04:10:10;;;;;;;12.82;8.75;;;;;;;;;;6229129;28;20088;-72
2021/05/23 04:13:12;;;;;;;14.50;8.43;;;;;;;;;;6230483;28;20054;-72
2021/05/23 04:16:13;;;;;;;13.98;8.68;;;;;;;;;;6238071;28;20056;-72
2021/05/23 04:19:14;;;;;;;11.05;8.70;;;;;;;;;;6239467;28;20049;-72
2021/05/23 04:22:15;;;;;;;15.02;9.65;;;;;;;;;;6241700;28;20043;-72
2021/05/23 04:25:18;;;;;;;15.88;8.95;;;;;;;;;;6238115;28;20567;-72
2021/05/23 04:28:20;;;;;;;13.55;8.55;;;;;;;;;;6237545;28;20137;-73
2021/05/23 04:31:21;;;;;;;10.55;9.15;;;;;;;;;;6237731;28;20120;-72
2021/05/23 04:34:22;;;;;;;14.88;10.55;;;;;;;;;;6238168;28;20053;-72
2021/05/23 04:37:23;;;;;;;18.42;10.23;;;;;;;;;;6235703;28;20054;-73
2021/05/23 04:40:24;;;;;;;14.10;10.57;;;;;;;;;;6235401;28;20501;-73
2021/05/23 04:43:26;;;;;;;13.27;10.15;;;;;;;;;;6239001;28;20135;-72
2021/05/23 04:46:27;;;;;;;13.48;11.43;;;;;;;;;;6236424;28;20053;-72
2021/05/23 04:49:29;;;;;;;15.85;11.38;;;;;;;;;;6236896;28;20057;-72
2021/05/23 04:52:30;;;;;;;15.07;10.60;;;;;;;;;;6235286;28;20533;-73
2021/05/23 04:55:31;;;;;;;16.67;10.88;;;;;;;;;;6237180;28;20045;-72
2021/05/23 04:58:33;;;;;;;19.20;11.95;;;;;;;;;;6237069;28;20136;-73
2021/05/23 05:01:34;;;;;;;16.25;10.90;;;;;;;;;;6238586;28;20103;-73
2021/05/23 05:04:35;;;;;;;18.85;11.73;;;;;;;;;;6244487;28;20053;-73
2021/05/23 05:07:36;;;;;;;17.35;12.27;;;;;;;;;;6237090;28;20436;-73
2021/05/23 05:10:37;;;;;;;14.50;11.15;;;;;;;;;;6233433;28;20080;-72
2021/05/23 05:13:40;;;;;;;14.80;10.20;;;;;;;;;;6235798;28;20554;-73
2021/05/23 05:16:41;;;;;;;17.42;11.70;;;;;;;;;;6232664;28;20057;-72
2021/05/23 05:19:42;;;;;;;15.02;11.50;;;;;;;;;;6234820;28;20179;-73
2021/05/23 05:22:43;;;;;;;15.85;11.23;;;;;;;;;;6234888;28;20431;-72
2021/05/23 05:25:44;;;;;;;16.80;12.32;;;;;;;;;;6233459;28;20046;-73
2021/05/23 05:28:46;;;;;;;18.27;11.35;;;;;;;;;;6233354;28;20046;-73
2021/05/23 05:31:47;;;;;;;15.90;11.30;;;;;;;;;;6234400;28;20459;-72
2021/05/23 05:34:48;;;;;;;14.73;11.40;;;;;;;;;;6228005;28;20049;-72
2021/05/23 05:37:49;;;;;;;19.60;12.02;;;;;;;;;;6232708;28;20072;-72
2021/05/23 05:40:50;;;;;;;16.20;12.02;;;;;;;;;;6233696;28;20056;-73
2021/05/23 05:43:52;;;;;;;16.80;11.73;;;;;;;;;;6235826;28;20045;-73
2021/05/23 05:46:54;;;;;;;18.60;12.43;;;;;;;;;;6235408;28;20045;-73
2021/05/23 05:49:55;;;;;;;17.40;11.13;;;;;;;;;;6237084;28;20057;-73
2021/05/23 05:52:56;;;;;;;14.48;11.23;;;;;;;;;;6236466;28;20147;-73
2021/05/23 05:55:57;;;;;;;20.90;11.70;;;;;;;;;;6230416;28;20181;-73
2021/05/23 05:59:00;;;;;;;16.40;12.20;;;;;;;;;;6232451;28;20053;-72
2021/05/23 06:02:01;;;;;;;16.27;10.85;;;;;;;;;;6240213;28;20114;-72
2021/05/23 06:05:03;;;;;;;20.17;11.77;;;;;;;;;;6230640;28;20041;-72
2021/05/23 06:08:04;;;;;;;19.40;10.55;;;;;;;;;;6236390;28;20454;-73
2021/05/23 06:11:05;;;;;;;18.88;11.30;;;;;;;;;;6236676;28;20079;-73
2021/05/23 06:14:08;;;;;;;17.20;11.82;;;;;;;;;;6243226;28;20072;-73
2021/05/23 06:17:09;;;;;;;16.58;11.70;;;;;;;;;;6234014;28;20405;-73
2021/05/23 06:20:11;;;;;;;18.70;10.75;;;;;;;;;;6234651;28;20200;-72
2021/05/23 06:23:12;;;;;;;18.73;11.93;;;;;;;;;;6235374;28;20049;-72
2021/05/23 06:26:14;;;;;;;14.70;11.55;;;;;;;;;;6230425;28;20535;-73
2021/05/23 06:29:17;;;;;;;17.15;11.77;;;;;;;;;;6234340;28;20393;-71
2021/05/23 06:32:18;;;;;;;13.23;10.65;;;;;;;;;;6228395;28;20528;-70
2021/05/23 06:35:19;;;;;;;16.70;11.23;;;;;;;;;;6228851;28;20049;-71
2021/05/23 06:38:20;;;;;;;17.75;11.20;;;;;;;;;;6229232;28;20454;-73
2021/05/23 06:41:21;;;;;;;13.27;10.63;;;;;;;;;;6228305;28;20595;-71
2021/05/23 06:44:23;;;;;;;15.07;10.90;;;;;;;;;;6236931;28;20136;-73
2021/05/23 06:47:24;;;;;;;17.17;11.32;;;;;;;;;;6231872;28;20168;-70
2021/05/23 06:50:25;;;;;;;16.17;11.35;;;;;;;;;;6232357;28;20059;-70
2021/05/23 06:53:27;;;;;;;17.10;10.82;;;;;;;;;;6240602;28;20139;-71
2021/05/23 06:56:28;;;;;;;15.60;10.60;;;;;;;;;;6235598;28;20153;-70
2021/05/23 06:59:30;;;;;;;17.48;10.23;;;;;;;;;;6234002;28;20171;-70
2021/05/23 07:02:31;;;;;;;17.40;10.02;;;;;;;;;;6236291;28;20188;-71
2021/05/23 07:05:32;;;;;;;14.32;10.63;;;;;;;;;;6234934;28;20140;-71
2021/05/23 07:08:33;;;;;;;15.13;10.18;;;;;;;;;;6237110;28;20191;-71
2021/05/23 07:11:34;;;;;;;14.82;9.20;;;;;;;;;;6237213;28;20058;-71
2021/05/23 07:14:36;;;;;;;13.55;9.77;;;;;;;;;;6234288;28;20076;-71
2021/05/23 07:17:38;;;;;;;12.48;9.07;;;;;;;;;;6236308;28;20061;-70
2021/05/23 07:20:39;;;;;;;15.88;9.15;;;;;;;;;;6235777;28;20054;-71
2021/05/23 07:23:40;;;;;;;14.60;9.00;;;;;;;;;;6234667;28;20140;-71
2021/05/23 07:26:42;;;;;;;15.07;9.38;;;;;;;;;;6229678;28;20196;-71
2021/05/23 07:29:44;;;;;;;14.38;8.40;;;;;;;;;;6238669;28;20524;-71
2021/05/23 07:32:45;;;;;;;12.48;8.20;;;;;;;;;;6228291;28;20494;-71
2021/05/23 07:35:46;;;;;;;13.93;7.90;;;;;;;;;;6230365;28;20129;-71
2021/05/23 07:38:47;;;;;;;14.43;7.90;;;;;;;;;;6232267;28;20726;-71
2021/05/23 07:41:49;;;;;;;10.50;6.32;;;;;;;;;;6232447;28;20129;-73
2021/05/23 07:44:51;;;;;;;13.38;6.30;;;;;;;;;;6233356;28;20248;-72
2021/05/23 07:47:52;;;;;;;14.05;6.65;;;;;;;;;;6236149;28;20756;-73
2021/05/23 07:50:53;;;;;;;12.63;6.53;;;;;;;;;;6234805;28;20050;-72
2021/05/23 07:53:54;;;;;;;8.73;4.40;;;;;;;;;;6234129;28;20053;-73
2021/05/23 07:56:56;;;;;;;10.50;4.57;;;;;;;;;;6231833;28;20148;-73
2021/05/23 07:59:58;;;;;;;10.80;4.00;;;;;;;;;;6237921;28;20088;-73
2021/05/23 08:02:59;;;;;;;8.10;4.90;;;;;;;;;;6237534;28;20103;-72
2021/05/23 08:06:04;;;;;;;8.57;5.15;;;;;;;;;;6240559;28;20045;-73
2021/05/23 08:09:06;;;;;;;13.77;4.95;;;;;;;;;;6239734;28;20511;-72
2021/05/23 08:12:07;;;;;;;8.15;4.30;;;;;;;;;;6242512;28;20121;-72
2021/05/23 08:15:12;;;;;;;6.93;4.45;;;;;;;;;;6237115;28;20046;-71
2021/05/23 08:18:17;;;;;;;12.68;4.43;;;;;;;;;;6239072;28;20049;-74
2021/05/23 08:21:19;;;;;;;8.55;4.32;;;;;;;;;;6239580;28;20049;-74
2021/05/23 08:24:20;;;;;;;9.27;4.18;;;;;;;;;;6243490;28;20140;-75
2021/05/23 08:27:21;;;;;;;7.25;3.83;;;;;;;;;;6237305;28;20080;-74
2021/05/23 08:30:24;;;;;;;8.50;3.92;;;;;;;;;;6236781;28;20049;-73
2021/05/23 08:33:25;;;;;;;10.13;4.05;;;;;;;;;;6244843;28;20060;-74
2021/05/23 08:36:27;;;;;;;8.85;3.33;;;;;;;;;;6246924;28;20051;-71
2021/05/23 08:39:28;;;;;;;8.02;3.70;;;;;;;;;;6241138;28;20091;-73
2021/05/23 08:42:30;;;;;;;9.40;4.38;;;;;;;;;;6238842;28;20045;-73
2021/05/23 08:45:32;;;;;;;8.20;4.22;;;;;;;;;;6235721;28;20049;-72
2021/05/23 08:48:34;;;;;;;9.75;4.43;;;;;;;;;;6237424;28;20127;-72
2021/05/23 08:51:35;;;;;;;8.30;4.22;;;;;;;;;;6235277;28;20053;-72
2021/05/23 08:54:41;;;;;;;7.82;4.50;;;;;;;;;;6237478;28;20542;-72
2021/05/23 08:57:42;;;;;;;7.90;3.67;;;;;;;;;;6238447;28;20117;-72
2021/05/23 09:00:45;;;;;;;6.75;3.42;;;;;;;;;;6232507;28;20155;-73
2021/05/23 09:03:56;;;;;;;9.75;3.92;;;;;;;;;;6236471;28;20144;-74
2021/05/23 09:07:00;;;;;;;12.32;4.55;;;;;;;;;;6236207;28;20045;-74
2021/05/23 09:10:03;;;;;;;7.28;3.47;;;;;;;;;;6239063;28;20141;-73
2021/05/23 09:13:04;;;;;;;10.03;3.77;;;;;;;;;;6237616;28;20576;-73
2021/05/23 09:16:09;;;;;;;8.45;4.10;;;;;;;;;;6239422;28;20136;-73
2021/05/23 09:19:10;;;;;;;6.82;4.15;;;;;;;;;;6237269;28;20049;-73
2021/05/23 09:22:12;;;;;;;7.35;4.00;;;;;;;;;;6237030;28;20170;-73
2021/05/23 09:25:13;;;;;;;6.18;3.80;;;;;;;;;;6236478;28;20072;-73
2021/05/23 09:28:15;;;;;;;7.60;3.60;;;;;;;;;;6233925;28;20076;-72
2021/05/23 09:31:18;;;;;;;6.35;3.38;;;;;;;;;;6235903;28;20059;-72
2021/05/23 09:34:19;;;;;;;;;;;;;;;;;;6235844;28;20049;-71
2021/05/23 09:37:20;;;;;;;9.60;3.45;;;;;;;;;;6232449;28;19944;-74
2021/05/23 09:40:24;;;;;;;6.35;3.20;;;;;;;;;;6236907;28;20180;-74
2021/05/23 09:43:26;;;;;;;7.32;3.13;;;;;;;;;;6235886;28;20083;-72
2021/05/23 09:46:28;;;;;;;7.38;3.08;;;;;;;;;;6234036;28;20072;-73
2021/05/23 09:49:31;;;;;;;5.00;2.85;;;;;;;;;;6235704;28;20163;-73
2021/05/23 09:52:33;;;;;;;6.60;2.50;;;;;;;;;;6234973;28;20068;-73
2021/05/23 09:55:35;;;;;;;3.97;2.20;;;;;;;;;;6236633;28;20056;-74
2021/05/23 09:58:37;;;;;;;6.35;3.00;;;;;;;;;;6236505;28;20573;-74
2021/05/23 10:01:39;;;;;;;7.88;3.60;;;;;;;;;;6233380;28;20072;-73
2021/05/23 10:04:41;;;;;;;4.38;2.75;;;;;;;;;;6237756;28;20045;-74
2021/05/23 10:07:42;;;;;;;8.40;2.67;;;;;;;;;;6237546;28;20049;-73
2021/05/23 10:10:43;;;;;;;4.47;2.20;;;;;;;;;;6236866;28;20346;-72
2021/05/23 10:13:45;;;;;;;6.05;2.88;;;;;;;;;;6239101;28;20527;-73
2021/05/23 10:16:50;;;;;;;5.25;2.63;;;;;;;;;;6238789;28;20473;-73
2021/05/23 10:19:55;;;;;;;4.60;2.72;;;;;;;;;;6232493;28;20164;-74
2021/05/23 10:22:58;;;;;;;5.40;2.10;;;;;;;;;;6230208;28;20049;-74
2021/05/23 10:26:02;;;;;;;5.50;3.45;;;;;;;;;;6234713;28;20049;-73
2021/05/23 10:29:04;;;;;;;3.38;2.00;;;;;;;;;;6235907;28;20076;-74
2021/05/23 10:32:09;;;;;;;4.22;2.20;;;;;;;;;;6236231;28;20153;-73
2021/05/23 10:35:13;;;;;;;6.03;2.03;;;;;;;;;;6234589;28;20619;-73
2021/05/23 10:38:16;;;;;;;6.45;2.30;;;;;;;;;;6235520;28;20991;-73
2021/05/23 10:41:19;;;;;;;5.50;1.77;;;;;;;;;;6232840;28;20304;-73
2021/05/23 10:44:20;;;;;;;4.15;2.28;;;;;;;;;;6232958;28;20048;-73
2021/05/23 10:47:26;;;;;;;6.40;2.05;;;;;;;;;;6240280;28;20038;-77
2021/05/23 10:50:34;;;;;;;5.50;2.30;;;;;;;;;;6235036;28;20058;-74
2021/05/23 10:53:36;;;;;;;6.13;1.85;;;;;;;;;;6238802;28;20053;-74
2021/05/23 10:56:37;;;;;;;2.90;1.30;;;;;;;;;;6236211;28;20188;-74
2021/05/23 10:59:40;;;;;;;4.63;1.52;;;;;;;;;;6238047;28;20132;-74
2021/05/23 11:02:43;;;;;;;5.50;1.95;;;;;;;;;;6237870;28;20617;-75
2021/05/23 11:05:46;;;;;;;4.22;1.30;;;;;;;;;;6239060;28;20674;-76
2021/05/23 11:08:49;;;;;;;6.28;1.33;;;;;;;;;;6235931;28;20511;-74
2021/05/23 11:11:50;;;;;;;4.90;1.48;;;;;;;;;;6236502;28;20164;-74
2021/05/23 11:14:55;;;;;;;2.83;1.70;;;;;;;;;;6236829;28;20132;-74
2021/05/23 11:17:57;;;;;;;2.42;1.40;;;;;;;;;;6235078;28;20049;-74
2021/05/23 11:20:59;;;;;;;4.15;1.40;;;;;;;;;;6233943;28;20129;-73
2021/05/23 11:24:01;;;;;;;3.40;1.17;;;;;;;;;;6235741;28;20057;-74
2021/05/23 11:27:10;;;;;;;3.13;1.50;;;;;;;;;;6237535;28;20091;-74
2021/05/23 11:30:12;;;;;;;5.03;1.63;;;;;;;;;;6239677;28;20088;-75
2021/05/23 11:33:14;;;;;;;1.83;1.17;;;;;;;;;;6239780;28;20049;-73
2021/05/23 11:36:19;;;;;;;2.60;1.57;;;;;;;;;;6243789;28;20379;-74
2021/05/23 11:39:21;;;;;;;5.03;1.58;;;;;;;;;;6245107;28;20053;-74
2021/05/23 11:42:22;;;;;;;3.00;1.60;;;;;;;;;;6238054;28;20128;-73
2021/05/23 11:45:24;;;;;;;2.25;1.40;;;;;;;;;;6240772;28;20124;-74
2021/05/23 11:48:38;;;;;;;3.70;1.48;;;;;;;;;;6238325;28;20140;-71
2021/05/23 11:51:39;;;;;;;3.67;1.73;;;;;;;;;;6235256;28;20099;-73
2021/05/23 11:54:40;;;;;;;4.13;1.20;;;;;;;;;;6240957;28;20069;-74
2021/05/23 11:57:41;;;;;;;4.85;1.38;;;;;;;;;;6236539;28;20084;-74
2021/05/23 12:00:43;;;;;;;5.22;1.30;;;;;;;;;;6239181;28;20167;-75
2021/05/23 12:03:55;;;;;;;3.60;1.42;;;;;;;;;;6237761;28;20052;-74
2021/05/23 12:07:00;;;;;;;3.75;1.60;;;;;;;;;;6240607;28;20057;-74
2021/05/23 12:10:01;;;;;;;4.43;1.80;;;;;;;;;;6240465;28;20132;-74
2021/05/23 12:13:02;;;;;;;3.58;1.88;;;;;;;;;;6239718;28;20130;-74
2021/05/23 12:16:04;;;;;;;5.57;1.70;;;;;;;;;;6240006;28;20140;-74
2021/05/23 12:19:06;;;;;;;4.10;1.58;;;;;;;;;;6241228;28;20077;-74
2021/05/23 12:22:07;;;;;;;5.25;2.15;;;;;;;;;;6239026;28;20577;-75
2021/05/23 12:25:10;;;;;;;3.90;1.67;;;;;;;;;;6238899;28;20152;-74
2021/05/23 12:28:11;;;;;;;3.65;1.80;;;;;;;;;;6238816;28;20518;-74
2021/05/23 12:31:14;;;;;;;2.10;1.10;;;;;;;;;;6240977;28;20045;-75
2021/05/23 12:34:18;;;;;;;2.13;1.23;;;;;;;;;;6248392;28;20045;-75
2021/05/23 12:37:21;;;;;;;3.28;1.50;;;;;;;;;;6244478;28;20484;-74
2021/05/23 12:40:25;;;;;;;1.70;1.00;;;;;;;;;;6240418;28;20060;-73
2021/05/23 12:43:28;;;;;;;2.92;1.38;;;;;;;;;;6238923;28;20060;-74
2021/05/23 12:46:29;;;;;;;;;;;;;;;;;;6239930;28;20439;-75
2021/05/23 12:49:34;;;;;;;2.70;1.20;;;;;;;;;;6241719;28;19929;-75
2021/05/23 12:52:35;;;;;;;2.55;1.48;;;;;;;;;;6241908;28;20126;-74
2021/05/23 12:55:38;;;;;;;2.15;1.30;;;;;;;;;;6242601;28;20049;-74
2021/05/23 12:58:44;;;;;;;2.22;1.15;;;;;;;;;;6245236;28;20049;-73
2021/05/23 13:01:47;;;;;;;3.22;1.63;;;;;;;;;;6238887;28;20061;-73
2021/05/23 13:04:48;;;;;;;;;;;;;;;;;;6237841;28;20081;-74
2021/05/23 13:07:50;;;;;;;1.42;0.93;;;;;;;;;;6235555;28;19924;-75
2021/05/23 13:10:53;;;;;;;1.52;1.08;;;;;;;;;;6240524;28;20080;-75
2021/05/23 13:13:54;;;;;;;2.90;1.10;;;;;;;;;;6247747;28;20578;-71
2021/05/23 13:16:57;;;;;;;3.78;1.45;;;;;;;;;;6242451;28;20160;-73
2021/05/23 13:20:00;;;;;;;2.53;1.13;;;;;;;;;;6240564;28;20406;-74
2021/05/23 13:23:06;;;;;;;5.43;1.40;;;;;;;;;;6239380;28;20057;-74
2021/05/23 13:26:12;;;;;;;3.97;1.40;;;;;;;;;;6238329;28;20049;-75
2021/05/23 13:29:14;;;;;;;3.50;1.25;;;;;;;;;;6235751;28;20045;-75
2021/05/23 13:32:16;;;;;;;3.07;1.17;;;;;;;;;;6239766;28;20081;-75
2021/05/23 13:35:19;;;;;;;1.98;1.05;;;;;;;;;;6239578;28;20396;-74
2021/05/23 13:38:20;;;;;;;2.30;1.05;;;;;;;;;;6235369;28;20176;-74
2021/05/23 13:41:21;;;;;;;2.17;1.38;;;;;;;;;;6245494;28;20139;-74
2021/05/23 13:44:23;;;;;;;2.88;1.20;;;;;;;;;;6239111;28;20054;-74
2021/05/23 13:47:24;;;;;;;2.05;0.93;;;;;;;;;;6247016;28;20127;-73
2021/05/23 13:50:26;;;;;;;2.40;1.23;;;;;;;;;;6245443;28;20081;-74
2021/05/23 13:53:27;;;;;;;1.38;0.82;;;;;;;;;;6242267;28;20392;-73
2021/05/23 13:56:34;;;;;;;2.17;0.77;;;;;;;;;;6240476;28;20053;-73
2021/05/23 13:59:35;;;;;;;1.80;0.90;;;;;;;;;;6240796;28;20086;-73
2021/05/23 14:02:36;;;;;;;1.00;0.60;;;;;;;;;;6248376;28;20065;-73
2021/05/23 14:05:39;;;;;;;1.38;0.60;;;;;;;;;;6240411;28;20049;-73
2021/05/23 14:08:40;;;;;;;1.23;0.70;;;;;;;;;;6242696;28;20053;-73
2021/05/23 14:11:50;;;;;;;2.40;0.80;;;;;;;;;;6241840;28;20361;-73
2021/05/23 14:14:54;;;;;;;2.25;0.60;;;;;;;;;;6239097;28;20057;-73
2021/05/23 14:17:56;;;;;;;0.85;0.70;;;;;;;;;;6240044;28;20081;-74
2021/05/23 14:20:58;;;;;;;0.73;0.52;;;;;;;;;;6239215;28;20057;-74
2021/05/23 14:23:59;;;;;;;1.90;0.60;;;;;;;;;;6238481;28;20076;-73
2021/05/23 14:27:00;;;;;;;2.38;0.70;;;;;;;;;;6235652;28;20049;-73
2021/05/23 14:30:01;;;;;;;2.72;0.70;;;;;;;;;;6239662;28;20052;-71
2021/05/23 14:33:12;;;;;;;2.20;0.85;;;;;;;;;;6228091;28;20045;-75
2021/05/23 14:36:14;;;;;;;1.60;0.75;;;;;;;;;;6240590;28;20065;-73
2021/05/23 14:39:15;;;;;;;3.10;1.40;;;;;;;;;;6241195;28;20046;-74
2021/05/23 14:42:17;;;;;;;4.32;1.08;;;;;;;;;;6240503;28;20057;-74
2021/05/23 14:45:18;;;;;;;2.45;1.00;;;;;;;;;;6238988;28;20053;-74
2021/05/23 14:48:19;;;;;;;2.47;0.80;;;;;;;;;;6223074;28;20100;-74
2021/05/23 14:51:21;;;;;;;4.22;1.58;;;;;;;;;;6236389;28;20404;-74
2021/05/23 14:54:23;;;;;;;4.88;1.40;;;;;;;;;;6241490;28;20045;-73
2021/05/23 14:57:25;;;;;;;4.28;0.93;;;;;;;;;;6236590;28;20876;-73
2021/05/23 15:00:26;;;;;;;1.80;0.77;;;;;;;;;;6234762;28;20045;-72
2021/05/23 15:03:27;;;;;;;138.10;79.18;;;;;;;;;;6237260;28;20068;-74
2021/05/23 15:06:30;;;;;;;3.47;2.60;;;;;;;;;;6235355;28;20061;-74
2021/05/23 15:09:31;;;;;;;1.55;0.68;;;;;;;;;;6236912;28;20109;-74
2021/05/23 15:12:33;;;;;;;3.08;0.88;;;;;;;;;;6238386;28;20049;-73
2021/05/23 15:15:34;;;;;;;1.60;0.80;;;;;;;;;;6237182;28;21032;-74
2021/05/23 15:18:37;;;;;;;1.45;0.80;;;;;;;;;;6240351;28;20542;-73
2021/05/23 15:21:40;;;;;;;1.63;0.90;;;;;;;;;;6238273;28;20049;-73
2021/05/23 15:24:41;;;;;;;2.40;1.00;;;;;;;;;;6234921;28;20654;-73
2021/05/23 15:31:15;;;;;;;2.58;1.00;;;;;;;;;;6233710;28;20057;-73
2021/05/23 15:34:16;;;;;;;1.95;0.77;;;;;;;;;;6234506;28;20104;-72
2021/05/23 15:37:19;;;;;;;2.05;0.70;;;;;;;;;;6221777;28;20068;-73
2021/05/23 15:40:22;;;;;;;2.47;0.68;;;;;;;;;;6235716;28;20042;-73
2021/05/23 15:43:23;;;;;;;2.35;0.77;;;;;;;;;;6233256;28;20042;-74
2021/05/23 15:46:25;;;;;;;2.35;0.70;;;;;;;;;;6232728;28;20056;-73
2021/05/23 15:49:27;;;;;;;1.67;0.97;;;;;;;;;;6241830;28;20045;-73
2021/05/23 15:52:29;;;;;;;1.00;0.77;;;;;;;;;;6241466;28;20041;-73
2021/05/23 15:55:30;;;;;;;2.25;0.95;;;;;;;;;;6204571;28;20069;-73
2021/05/23 15:58:31;;;;;;;2.63;0.80;;;;;;;;;;6233795;28;20106;-73
2021/05/23 16:01:33;;;;;;;1.77;1.00;;;;;;;;;;6233230;28;20038;-73
2021/05/23 16:04:34;;;;;;;1.92;1.00;;;;;;;;;;6237199;28;20077;-72
2021/05/23 16:07:36;;;;;;;2.30;0.90;;;;;;;;;;6234119;28;20081;-73
2021/05/23 16:10:38;;;;;;;1.23;0.75;;;;;;;;;;6235148;28;20107;-73
2021/05/23 16:13:39;;;;;;;1.38;0.93;;;;;;;;;;6235517;28;20045;-72
2021/05/23 16:16:41;;;;;;;3.00;1.48;;;;;;;;;;6235974;28;20049;-73
2021/05/23 16:19:42;;;;;;;2.33;0.75;;;;;;;;;;6236469;28;20065;-73
2021/05/23 16:22:44;;;;;;;2.03;0.70;;;;;;;;;;6238865;28;20053;-73
2021/05/23 16:25:45;;;;;;;2.33;1.00;;;;;;;;;;6236515;28;20052;-73
2021/05/23 16:28:47;;;;;;;2.85;1.10;;;;;;;;;;6245468;28;20053;-73
2021/05/23 16:31:48;;;;;;;3.03;1.30;;;;;;;;;;6238705;28;20077;-73
2021/05/23 16:34:49;;;;;;;1.65;0.80;;;;;;;;;;6235450;28;20065;-72
2021/05/23 16:37:52;;;;;;;3.20;1.27;;;;;;;;;;6233026;28;20038;-73
2021/05/23 16:40:54;;;;;;;2.72;0.90;;;;;;;;;;6237780;28;20048;-73
2021/05/23 16:43:55;;;;;;;2.30;1.10;;;;;;;;;;6235641;28;20081;-73
2021/05/23 16:46:57;;;;;;;1.00;0.73;;;;;;;;;;6242474;28;20057;-72
2021/05/23 16:49:58;;;;;;;3.58;0.70;;;;;;;;;;6246164;28;20046;-72
2021/05/23 16:53:00;;;;;;;1.83;0.82;;;;;;;;;;6235171;28;20069;-73
2021/05/23 16:56:02;;;;;;;1.25;0.80;;;;;;;;;;6228077;28;21281;-73
2021/05/23 16:59:04;;;;;;;2.92;1.27;;;;;;;;;;6232395;28;20079;-73
2021/05/23 17:02:07;;;;;;;2.10;0.90;;;;;;;;;;6233322;28;20113;-72
2021/05/23 17:05:11;;;;;;;1.23;0.70;;;;;;;;;;6231058;28;20050;-72
2021/05/23 17:08:13;;;;;;;;;;;;;;;;;;6236316;28;20053;-72
2021/05/23 17:11:14;;;;;;;2.03;0.85;;;;;;;;;;6237859;28;19947;-73
2021/05/23 17:14:15;;;;;;;2.65;0.85;;;;;;;;;;6235810;28;20057;-72
2021/05/23 17:17:17;;;;;;;3.38;0.90;;;;;;;;;;6237775;28;20099;-73
2021/05/23 17:20:20;;;;;;;4.82;1.23;;;;;;;;;;6234028;28;20052;-73
2021/05/23 17:23:22;;;;;;;2.33;0.90;;;;;;;;;;6231680;28;20964;-73
2021/05/23 17:26:23;;;;;;;3.00;0.80;;;;;;;;;;6235642;28;20049;-73
2021/05/23 17:29:25;;;;;;;1.77;0.90;;;;;;;;;;6236434;28;20479;-72
2021/05/23 17:32:26;;;;;;;4.90;1.38;;;;;;;;;;6236579;28;20050;-73
2021/05/23 17:35:28;;;;;;;1.02;0.70;;;;;;;;;;6237976;28;20045;-73
2021/05/23 17:38:30;;;;;;;1.85;0.80;;;;;;;;;;6238504;28;20050;-73
2021/05/23 17:41:31;;;;;;;3.67;0.80;;;;;;;;;;6240639;28;20125;-73
2021/05/23 17:44:32;;;;;;;1.88;0.93;;;;;;;;;;6236120;28;20377;-73
2021/05/23 17:47:33;;;;;;;2.42;1.40;;;;;;;;;;6238459;28;20120;-73
2021/05/23 17:50:38;;;;;;;0.80;0.70;;;;;;;;;;6234732;28;20061;-74
2021/05/23 17:53:40;;;;;;;4.70;1.00;;;;;;;;;;6236689;28;20418;-74
2021/05/23 17:56:41;;;;;;;1.88;0.90;;;;;;;;;;6242353;28;20140;-72
2021/05/23 17:59:43;;;;;;;3.22;1.00;;;;;;;;;;6242448;28;20103;-73
2021/05/23 18:02:44;;;;;;;1.00;0.75;;;;;;;;;;6237417;28;20160;-73
2021/05/23 18:05:45;;;;;;;2.80;0.80;;;;;;;;;;6235919;28;20049;-72
2021/05/23 18:08:49;;;;;;;1.75;0.80;;;;;;;;;;6238288;28;20049;-72
2021/05/23 18:11:50;;;;;;;1.42;0.77;;;;;;;;;;6236675;28;20057;-73